createdAt,value
2023-05-21T00:01:48.608Z,23.15
2023-05-21T00:06:52.240Z,23.30
2023-05-21T00:11:55.862Z,20.77
2023-05-21T00:17:00.910Z,22.80
2023-05-21T00:22:04.601Z,21.52
2023-05-21T00:27:08.155Z,19.65
2023-05-21T00:32:13.257Z,20.30
2023-05-21T00:37:17.376Z,18.05
2023-05-21T00:42:20.813Z,19.23
2023-05-21T00:47:27.013Z,17.90
2023-05-21T00:52:30.781Z,21.63
2023-05-21T00:57:37.182Z,19.40
2023-05-21T01:02:42.485Z,25.88
2023-05-21T01:07:46.706Z,23.38
2023-05-21T01:12:50.582Z,21.65
2023-05-21T01:17:57.369Z,20.75
2023-05-21T01:23:03.022Z,21.05
2023-05-21T01:28:06.676Z,19.33
2023-05-21T01:33:16.468Z,24.67
2023-05-21T01:38:27.611Z,23.58
2023-05-21T01:43:33.839Z,19.90
2023-05-21T01:48:37.759Z,20.52
2023-05-21T01:53:42.686Z,19.02
2023-05-21T01:58:46.434Z,17.67
2023-05-21T02:03:49.985Z,24.60
2023-05-21T02:08:55.705Z,20.52
2023-05-21T02:13:59.375Z,21.58
2023-05-21T02:19:04.779Z,17.80
2023-05-21T02:24:09.869Z,20.02
2023-05-21T02:29:13.409Z,17.92
2023-05-21T02:34:17.676Z,19.15
2023-05-21T02:39:22.574Z,21.95
2023-05-21T02:44:26.023Z,18.40
2023-05-21T02:49:29.536Z,18.98
2023-05-21T02:54:34.397Z,18.15
2023-05-21T02:59:37.871Z,27.55
2023-05-21T03:04:46.436Z,18.55
2023-05-21T03:09:51.840Z,19.33
2023-05-21T03:14:56.431Z,18.40
2023-05-21T03:19:59.913Z,18.67
2023-05-21T03:25:05.009Z,19.48
2023-05-21T03:30:09.595Z,19.95
2023-05-21T03:35:13.223Z,17.50
2023-05-21T03:40:18.167Z,20.33
2023-05-21T03:45:21.839Z,17.88
2023-05-21T03:50:25.372Z,17.83
2023-05-21T03:55:30.557Z,15.18
2023-05-21T04:00:34.776Z,17.05
2023-05-21T04:05:38.620Z,16.70
2023-05-21T04:10:43.638Z,18.17
2023-05-21T04:15:47.213Z,19.65
2023-05-21T04:20:50.824Z,23.67
2023-05-21T04:25:55.660Z,22.38
2023-05-21T04:30:59.287Z,18.02
2023-05-21T04:36:05.982Z,13.93
2023-05-21T04:41:10.994Z,15.05
2023-05-21T04:46:14.924Z,17.55
2023-05-21T04:51:18.471Z,16.25
2023-05-21T04:56:23.558Z,15.77
2023-05-21T05:01:29.450Z,13.85
2023-05-21T05:06:33.029Z,13.60
2023-05-21T05:11:38.208Z,15.85
2023-05-21T05:16:43.111Z,16.30
2023-05-21T05:21:47.047Z,12.02
2023-05-21T05:26:51.856Z,15.65
2023-05-21T05:31:55.372Z,16.02
2023-05-21T05:36:58.919Z,15.13
2023-05-21T05:42:03.745Z,14.25
2023-05-21T05:47:10.971Z,12.43
2023-05-21T05:52:14.492Z,12.25
2023-05-21T05:57:19.554Z,12.63
2023-05-21T06:02:23.348Z,12.52
2023-05-21T06:07:27.171Z,14.05
2023-05-21T06:12:32.038Z,15.07
2023-05-21T06:17:35.545Z,13.90
2023-05-21T06:22:39.270Z,11.43
2023-05-21T06:27:44.296Z,9.43
2023-05-21T06:32:47.875Z,10.98
2023-05-21T06:37:51.670Z,15.45
2023-05-21T06:42:57.992Z,10.30
2023-05-21T06:48:01.509Z,10.80
2023-05-21T06:53:05.511Z,13.07
2023-05-21T06:58:10.681Z,12.02
2023-05-21T07:03:14.404Z,11.43
2023-05-21T07:08:19.893Z,10.27
2023-05-21T07:13:24.800Z,11.45
2023-05-21T07:18:28.514Z,14.93
2023-05-21T07:23:32.248Z,10.60
2023-05-21T07:28:37.076Z,13.95
2023-05-21T07:33:40.950Z,11.00
2023-05-21T07:38:45.626Z,11.25
2023-05-21T07:43:50.743Z,10.15
2023-05-21T07:48:54.127Z,9.18
2023-05-21T07:53:57.699Z,12.93
2023-05-21T07:59:03.051Z,10.38
2023-05-21T08:04:06.851Z,8.57
2023-05-21T08:09:10.538Z,9.60
2023-05-21T08:14:15.611Z,7.68
2023-05-21T08:19:19.194Z,10.13
2023-05-21T08:24:22.944Z,9.77
2023-05-21T08:29:28.032Z,9.43
2023-05-21T08:34:34.094Z,9.85
2023-05-21T08:39:37.923Z,8.85
2023-05-21T08:44:47.207Z,9.40
2023-05-21T08:49:52.484Z,11.48
2023-05-21T08:54:57.870Z,8.38
2023-05-21T09:00:04.818Z,9.00
2023-05-21T09:05:11.611Z,11.43
2023-05-21T09:10:18.862Z,10.32
2023-05-21T09:15:24.538Z,7.22
2023-05-21T09:20:30.137Z,8.68
2023-05-21T09:25:35.295Z,6.22
2023-05-21T09:30:46.075Z,7.25
2023-05-21T09:35:51.028Z,6.53
2023-05-21T09:40:56.616Z,7.72
2023-05-21T09:46:02.271Z,9.52
2023-05-21T09:51:13.744Z,8.77
2023-05-21T09:56:22.536Z,6.88
2023-05-21T10:01:29.168Z,5.78
2023-05-21T10:06:33.751Z,5.72
2023-05-21T10:11:38.625Z,5.53
2023-05-21T10:16:45.259Z,9.25
2023-05-21T10:21:51.461Z,7.63
2023-05-21T10:26:58.045Z,8.35
2023-05-21T10:32:04.449Z,7.22
2023-05-21T10:37:13.252Z,5.57
2023-05-21T10:42:25.552Z,6.97
2023-05-21T10:48:03.472Z,5.82
2023-05-21T10:53:15.419Z,7.13
2023-05-21T10:58:41.696Z,7.82
2023-05-21T11:03:48.548Z,4.90
2023-05-21T11:08:55.300Z,8.68
2023-05-21T11:14:00.701Z,6.35
2023-05-21T11:19:05.654Z,5.57
2023-05-21T11:24:11.279Z,4.55
2023-05-21T11:29:16.453Z,5.90
2023-05-21T11:34:28.378Z,7.57
2023-05-21T11:39:40.688Z,4.95
2023-05-21T11:44:45.477Z,6.03
2023-05-21T11:49:50.426Z,4.05
2023-05-21T11:54:55.587Z,7.95
2023-05-21T12:00:00.237Z,5.75
2023-05-21T12:05:06.424Z,4.55
2023-05-21T12:10:11.099Z,4.90
2023-05-21T12:15:15.072Z,4.53
2023-05-21T12:20:21.002Z,5.68
2023-05-21T12:25:25.398Z,5.53
2023-05-21T12:30:30.317Z,3.67
2023-05-21T12:35:35.805Z,4.43
2023-05-21T12:40:40.517Z,6.57
2023-05-21T12:45:44.663Z,4.93
2023-05-21T12:50:49.807Z,5.30
2023-05-21T12:55:56.377Z,4.75
2023-05-21T13:01:00.936Z,6.95
2023-05-21T13:06:08.424Z,8.20
2023-05-21T13:11:11.948Z,4.05
2023-05-21T13:16:16.416Z,3.83
2023-05-21T13:21:21.306Z,6.47
2023-05-21T13:26:25.072Z,6.32
2023-05-21T13:31:28.606Z,5.68
2023-05-21T13:36:33.695Z,9.48
2023-05-21T13:41:37.212Z,4.40
2023-05-21T13:46:40.891Z,5.50
2023-05-21T13:51:45.879Z,4.15
2023-05-21T13:56:49.885Z,3.92
2023-05-21T14:01:53.759Z,6.13
2023-05-21T14:06:59.430Z,4.47
2023-05-21T14:12:06.256Z,4.53
2023-05-21T14:17:10.156Z,3.22
2023-05-21T14:22:14.995Z,3.85
2023-05-21T14:27:18.546Z,3.90
2023-05-21T14:32:22.794Z,7.18
2023-05-21T14:37:27.904Z,4.30
2023-05-21T14:42:32.103Z,4.43
2023-05-21T14:47:36.680Z,6.18
2023-05-21T14:52:42.746Z,8.23
2023-05-21T14:57:46.405Z,5.82
2023-05-21T15:02:50.011Z,3.22
2023-05-21T15:07:55.985Z,5.20
2023-05-21T15:12:59.584Z,4.97
2023-05-21T15:18:03.302Z,5.97
2023-05-21T15:23:16.740Z,11.65
2023-05-21T15:28:21.551Z,5.18
2023-05-21T15:33:25.408Z,9.00
2023-05-21T15:38:30.252Z,3.95
2023-05-21T15:43:33.933Z,9.82
2023-05-21T15:48:37.980Z,4.43
2023-05-21T15:53:43.057Z,4.15
2023-05-21T15:58:46.549Z,5.32
2023-05-21T16:03:50.367Z,3.10
2023-05-21T16:08:55.356Z,6.32
2023-05-21T16:13:58.821Z,4.72
2023-05-21T16:19:02.734Z,3.80
2023-05-21T16:24:08.851Z,3.83
2023-05-21T16:29:12.395Z,2.90
2023-05-21T16:34:16.501Z,5.15
2023-05-21T16:39:21.448Z,4.68
2023-05-21T16:44:25.236Z,6.38
2023-05-21T16:49:28.705Z,5.22
2023-05-21T16:54:34.165Z,6.03
2023-05-21T16:59:37.783Z,7.30
2023-05-21T17:04:41.335Z,7.13
2023-05-21T17:09:46.187Z,4.13
2023-05-21T17:14:49.620Z,5.93
2023-05-21T17:19:53.135Z,2.90
2023-05-21T17:24:58.730Z,4.22
2023-05-21T17:30:02.706Z,7.68
2023-05-21T17:35:07.234Z,5.85
2023-05-21T17:40:13.271Z,6.57
2023-05-21T17:45:16.779Z,4.95
2023-05-21T17:50:20.213Z,3.42
2023-05-21T17:55:25.085Z,5.32
2023-05-21T18:00:28.601Z,4.43
2023-05-21T18:05:32.085Z,4.90
2023-05-21T18:10:37.176Z,4.57
2023-05-21T18:15:40.860Z,5.82
2023-05-21T18:20:45.131Z,4.13
2023-05-21T18:25:50.132Z,5.25
2023-05-21T18:30:55.261Z,7.72
2023-05-21T18:35:59.736Z,5.15
2023-05-21T18:41:05.126Z,9.85
2023-05-21T18:46:09.076Z,3.65
2023-05-21T18:51:12.706Z,4.38
2023-05-21T18:56:17.709Z,5.45
2023-05-21T19:01:21.276Z,3.42
2023-05-21T19:06:25.671Z,5.05
2023-05-21T19:11:34.353Z,7.15
2023-05-21T19:16:38.196Z,3.20
2023-05-21T19:21:41.838Z,5.60
2023-05-21T19:26:47.165Z,5.72
2023-05-21T19:31:50.667Z,3.70
2023-05-21T19:36:54.975Z,6.38
2023-05-21T19:41:59.808Z,5.55
2023-05-21T19:47:03.722Z,10.13
2023-05-21T19:52:07.578Z,5.88
2023-05-21T19:57:13.332Z,5.90
2023-05-21T20:02:19.050Z,5.63
2023-05-21T20:07:22.621Z,7.43
2023-05-21T20:12:27.556Z,6.13
2023-05-21T20:17:33.987Z,5.15
2023-05-21T20:22:37.885Z,8.73
2023-05-21T20:27:43.009Z,4.82
2023-05-21T20:32:46.533Z,6.93
2023-05-21T20:37:50.632Z,5.50
2023-05-21T20:42:55.464Z,5.80
2023-05-21T20:48:01.373Z,8.20
2023-05-21T20:53:05.305Z,7.60
2023-05-21T20:58:10.096Z,6.20
2023-05-21T21:03:13.702Z,6.35
2023-05-21T21:08:17.698Z,6.72
2023-05-21T21:13:22.564Z,6.13
2023-05-21T21:18:26.051Z,8.82
2023-05-21T21:23:30.115Z,5.65
2023-05-21T21:28:34.948Z,8.10
2023-05-21T21:33:38.479Z,7.65
2023-05-21T21:38:42.377Z,5.63
2023-05-21T21:43:47.128Z,6.90
2023-05-21T21:48:50.540Z,6.00
2023-05-21T21:53:53.984Z,6.32
2023-05-21T21:58:58.808Z,6.30
2023-05-21T22:04:02.615Z,8.07
2023-05-21T22:09:06.508Z,5.70
2023-05-21T22:14:11.644Z,5.30
2023-05-21T22:19:17.894Z,8.98
2023-05-21T22:24:32.156Z,7.45
2023-05-21T22:29:38.093Z,6.30
